sensor_id;sensor_type;location;lat;lon;timestamp;pressure;altitude;pressure_sealevel;temperature;humidity
68199;BME280;55021;51.554;17.044;2023-04-02T00:10:47;99870.13;;;4.80;98.62
68199;BME280;55021;51.554;17.044;2023-04-02T00:25:51;99898.41;;;4.94;96.39
68199;BME280;55021;51.554;17.044;2023-04-02T00:40:56;99904.16;;;4.69;95.74
68199;BME280;55021;51.554;17.044;2023-04-02T00:56:03;99914.44;;;4.32;95.11
68199;BME280;55021;51.554;17.044;2023-04-02T01:11:31;99950.63;;;4.58;96.47
68199;BME280;55021;51.554;17.044;2023-04-02T01:26:53;99974.69;;;4.69;95.88
68199;BME280;55021;51.554;17.044;2023-04-02T01:42:06;99996.63;;;4.31;96.64
68199;BME280;55021;51.554;17.044;2023-04-02T01:57:17;99996.28;;;4.14;98.67
68199;BME280;55021;51.554;17.044;2023-04-02T02:12:20;100029.59;;;4.21;98.29
68199;BME280;55021;51.554;17.044;2023-04-02T02:27:48;100036.28;;;4.15;98.31
68199;BME280;55021;51.554;17.044;2023-04-02T02:42:56;100055.06;;;4.04;100.00
68199;BME280;55021;51.554;17.044;2023-04-02T02:58:01;100071.22;;;3.92;100.00
68199;BME280;55021;51.554;17.044;2023-04-02T03:13:19;100043.13;;;3.86;98.03
68199;BME280;55021;51.554;17.044;2023-04-02T03:28:27;100084.59;;;3.80;97.13
68199;BME280;55021;51.554;17.044;2023-04-02T03:43:34;100101.28;;;3.95;95.94
68199;BME280;55021;51.554;17.044;2023-04-02T03:58:45;100100.66;;;3.80;94.34
68199;BME280;55021;51.554;17.044;2023-04-02T04:13:55;100169.31;;;3.58;94.97
68199;BME280;55021;51.554;17.044;2023-04-02T04:29:04;100188.41;;;3.64;95.83
68199;BME280;55021;51.554;17.044;2023-04-02T04:44:14;100245.69;;;4.08;93.33
68199;BME280;55021;51.554;17.044;2023-04-02T04:59:22;100256.53;;;4.06;91.44
68199;BME280;55021;51.554;17.044;2023-04-02T05:14:31;100304.91;;;3.92;89.32
68199;BME280;55021;51.554;17.044;2023-04-02T05:29:41;100305.50;;;3.84;87.97
68199;BME280;55021;51.554;17.044;2023-04-02T05:44:55;100354.44;;;3.98;89.19
68199;BME280;55021;51.554;17.044;2023-04-02T06:00:06;100365.97;;;4.22;88.68
68199;BME280;55021;51.554;17.044;2023-04-02T06:15:16;100385.34;;;4.25;87.83
68199;BME280;55021;51.554;17.044;2023-04-02T06:30:22;100389.59;;;3.93;87.32
68199;BME280;55021;51.554;17.044;2023-04-02T06:45:29;100433.88;;;3.97;88.33
68199;BME280;55021;51.554;17.044;2023-04-02T07:00:35;100457.16;;;4.08;84.86
68199;BME280;55021;51.554;17.044;2023-04-02T07:15:38;100417.06;;;3.95;84.82
68199;BME280;55021;51.554;17.044;2023-04-02T07:30:42;100433.00;;;3.73;85.00
68199;BME280;55021;51.554;17.044;2023-04-02T07:45:44;100475.75;;;3.98;82.44
68199;BME280;55021;51.554;17.044;2023-04-02T08:00:47;100454.53;;;3.95;81.68
68199;BME280;55021;51.554;17.044;2023-04-02T08:15:50;100569.44;;;4.58;82.25
68199;BME280;55021;51.554;17.044;2023-04-02T08:30:53;100597.09;;;4.82;78.88
68199;BME280;55021;51.554;17.044;2023-04-02T08:46:03;100628.66;;;4.30;79.23
68199;BME280;55021;51.554;17.044;2023-04-02T09:01:18;100603.56;;;4.56;77.95
68199;BME280;55021;51.554;17.044;2023-04-02T09:16:40;100657.00;;;4.58;80.42
68199;BME280;55021;51.554;17.044;2023-04-02T09:31:47;100672.78;;;4.86;77.84
68199;BME280;55021;51.554;17.044;2023-04-02T09:46:58;100680.59;;;5.36;76.13
68199;BME280;55021;51.554;17.044;2023-04-02T10:02:02;100644.56;;;4.93;73.80
68199;BME280;55021;51.554;17.044;2023-04-02T10:17:09;100655.91;;;5.20;73.73
68199;BME280;55021;51.554;17.044;2023-04-02T10:32:17;100722.44;;;5.15;75.41
68199;BME280;55021;51.554;17.044;2023-04-02T10:47:33;100765.38;;;5.02;74.52
68199;BME280;55021;51.554;17.044;2023-04-02T11:02:45;100729.75;;;5.13;73.03
68199;BME280;55021;51.554;17.044;2023-04-02T11:17:50;100790.78;;;6.04;71.82
68199;BME280;55021;51.554;17.044;2023-04-02T11:32:52;100727.41;;;5.32;72.44
68199;BME280;55021;51.554;17.044;2023-04-02T12:03:57;100843.34;;;5.96;73.97
68199;BME280;55021;51.554;17.044;2023-04-02T12:19:07;100848.59;;;6.45;71.79
68199;BME280;55021;51.554;17.044;2023-04-02T12:34:13;100859.84;;;6.26;71.76
68199;BME280;55021;51.554;17.044;2023-04-02T12:49:25;100845.91;;;6.67;70.91
68199;BME280;55021;51.554;17.044;2023-04-02T13:04:29;100788.22;;;6.03;71.44
68199;BME280;55021;51.554;17.044;2023-04-02T13:19:33;100893.41;;;6.44;72.08
68199;BME280;55021;51.554;17.044;2023-04-02T13:34:35;100908.41;;;6.36;72.25
68199;BME280;55021;51.554;17.044;2023-04-02T13:49:38;100880.16;;;6.06;70.81
68199;BME280;55021;51.554;17.044;2023-04-02T14:04:43;100879.00;;;6.56;69.72
68199;BME280;55021;51.554;17.044;2023-04-02T14:20:04;100934.09;;;6.51;70.24
68199;BME280;55021;51.554;17.044;2023-04-02T14:35:19;100976.16;;;6.28;69.75
68199;BME280;55021;51.554;17.044;2023-04-02T14:50:28;100996.63;;;6.42;70.03
68199;BME280;55021;51.554;17.044;2023-04-02T15:05:38;100981.88;;;6.11;69.17
68199;BME280;55021;51.554;17.044;2023-04-02T15:20:51;101012.69;;;6.31;69.83
68199;BME280;55021;51.554;17.044;2023-04-02T15:36:01;100948.66;;;5.88;70.51
68199;BME280;55021;51.554;17.044;2023-04-02T15:51:18;101047.19;;;6.24;70.56
68199;BME280;55021;51.554;17.044;2023-04-02T16:06:26;101084.91;;;6.10;70.98
68199;BME280;55021;51.554;17.044;2023-04-02T16:21:32;101083.09;;;6.10;70.21
68199;BME280;55021;51.554;17.044;2023-04-02T16:36:47;101096.97;;;6.17;68.02
68199;BME280;55021;51.554;17.044;2023-04-02T16:51:59;101106.91;;;6.40;67.79
68199;BME280;55021;51.554;17.044;2023-04-02T17:07:15;101133.56;;;6.43;67.18
68199;BME280;55021;51.554;17.044;2023-04-02T17:22:24;101070.97;;;5.80;68.40
68199;BME280;55021;51.554;17.044;2023-04-02T17:37:32;101191.56;;;6.71;67.09
68199;BME280;55021;51.554;17.044;2023-04-02T17:52:42;101204.72;;;6.99;67.50
68199;BME280;55021;51.554;17.044;2023-04-02T18:07:57;101232.13;;;6.43;68.74
68199;BME280;55021;51.554;17.044;2023-04-02T18:23:09;101262.53;;;5.93;66.57
68199;BME280;55021;51.554;17.044;2023-04-02T18:38:24;101270.31;;;5.71;65.06
68199;BME280;55021;51.554;17.044;2023-04-02T18:53:30;101303.13;;;5.61;62.37
68199;BME280;55021;51.554;17.044;2023-04-02T19:08:38;101314.50;;;5.38;60.87
68199;BME280;55021;51.554;17.044;2023-04-02T19:23:55;101324.66;;;4.92;61.57
68199;BME280;55021;51.554;17.044;2023-04-02T19:39:24;101377.59;;;4.75;58.44
68199;BME280;55021;51.554;17.044;2023-04-02T19:54:29;101388.41;;;4.29;60.06
68199;BME280;55021;51.554;17.044;2023-04-02T20:09:31;101392.38;;;4.08;60.66
68199;BME280;55021;51.554;17.044;2023-04-02T20:24:34;101433.00;;;4.01;61.95
68199;BME280;55021;51.554;17.044;2023-04-02T20:39:36;101448.38;;;3.66;62.56
68199;BME280;55021;51.554;17.044;2023-04-02T20:54:39;101381.38;;;3.05;63.41
68199;BME280;55021;51.554;17.044;2023-04-02T21:09:42;101473.13;;;3.38;63.79
68199;BME280;55021;51.554;17.044;2023-04-02T21:24:45;101483.16;;;3.17;64.94
68199;BME280;55021;51.554;17.044;2023-04-02T21:39:48;101494.22;;;2.77;66.16
68199;BME280;55021;51.554;17.044;2023-04-02T21:54:51;101434.72;;;2.05;65.93
68199;BME280;55021;51.554;17.044;2023-04-02T22:09:53;101421.66;;;1.82;65.87
68199;BME280;55021;51.554;17.044;2023-04-02T22:24:56;101469.75;;;1.80;66.54
68199;BME280;55021;51.554;17.044;2023-04-02T22:39:58;101553.94;;;2.59;66.28
68199;BME280;55021;51.554;17.044;2023-04-02T22:55:01;101496.06;;;1.88;67.61
68199;BME280;55021;51.554;17.044;2023-04-02T23:10:04;101560.97;;;1.88;68.60
68199;BME280;55021;51.554;17.044;2023-04-02T23:25:07;101555.09;;;1.62;69.52
68199;BME280;55021;51.554;17.044;2023-04-02T23:40:10;101582.59;;;2.01;69.53
68199;BME280;55021;51.554;17.044;2023-04-02T23:55:12;101582.88;;;2.14;69.53
